Time;durP1;ratioP1;P1;durP2;ratioP2;P2;SDS_P1;SDS_P2;PMS_P1;PMS_P2;Temp;Humidity;BMP_temperature;BMP_pressure;BME280_temperature;BME280_humidity;BME280_pressure;Samples;Min_cycle;Max_cycle;Signal;HPM_P1;HPM_P2
2023/03/07 00:01:25;;;;;;;15.67;10.17;;;9.30;97.90;;;;;;6185852;23;20059;-65
2023/03/07 00:03:51;;;;;;;16.10;10.00;;;9.30;97.90;;;;;;6185790;23;20005;-65
2023/03/07 00:06:17;;;;;;;13.50;9.07;;;9.30;97.90;;;;;;6185673;23;20095;-65
2023/03/07 00:08:43;;;;;;;12.80;8.53;;;9.30;97.80;;;;;;6185455;23;20061;-66
2023/03/07 00:11:08;;;;;;;11.20;8.70;;;9.30;97.70;;;;;;6185139;23;20001;-65
2023/03/07 00:13:36;;;;;;;11.07;8.17;;;9.30;97.70;;;;;;6185959;23;20098;-65
2023/03/07 00:16:09;;;;;;;11.33;8.33;;;9.30;97.70;;;;;;6185523;23;20005;-65
2023/03/07 00:18:35;;;;;;;;;;;9.30;97.60;;;;;;6186422;23;20007;-66
2023/03/07 00:21:07;;;;;;;17.53;9.20;;;9.20;97.80;;;;;;6185608;23;19928;-65
2023/03/07 00:23:38;;;;;;;12.63;8.50;;;9.20;97.30;;;;;;6185644;23;20420;-64
2023/03/07 00:26:18;;;;;;;13.40;8.60;;;9.20;97.30;;;;;;6184169;23;20071;-64
2023/03/07 00:28:50;;;;;;;14.40;9.33;;;9.20;97.30;;;;;;6185407;23;20004;-65
2023/03/07 00:31:16;;;;;;;15.67;9.87;;;9.20;97.50;;;;;;6185132;23;20076;-65
2023/03/07 00:33:42;;;;;;;13.67;9.60;;;9.20;97.60;;;;;;6185632;23;20017;-65
2023/03/07 00:36:14;;;;;;;14.13;10.13;;;9.20;97.70;;;;;;6185345;23;20005;-64
2023/03/07 00:38:41;;;;;;;15.13;10.20;;;9.20;97.70;;;;;;6185185;23;20384;-65
2023/03/07 00:41:12;;;;;;;15.97;10.60;;;9.20;97.70;;;;;;6185307;23;20080;-65
2023/03/07 00:43:38;;;;;;;16.10;9.67;;;9.20;97.70;;;;;;6185050;23;20060;-65
2023/03/07 00:46:05;;;;;;;14.43;9.97;;;9.20;97.90;;;;;;6185197;23;19997;-65
2023/03/07 00:48:36;;;;;;;16.80;10.47;;;9.20;98.20;;;;;;6185059;23;20021;-64
2023/03/07 00:51:03;;;;;;;14.03;9.67;;;9.20;98.30;;;;;;6185183;23;20001;-66
2023/03/07 00:53:29;;;;;;;12.37;9.50;;;9.20;98.40;;;;;;6185213;23;20096;-65
2023/03/07 00:55:59;;;;;;;22.77;14.37;;;9.20;98.30;;;;;;6185478;23;19998;-65
2023/03/07 00:58:27;;;;;;;63.40;38.73;;;9.20;98.40;;;;;;6184995;23;20016;-65
2023/03/07 01:00:52;;;;;;;36.57;21.70;;;9.20;98.30;;;;;;6185085;23;19997;-65
2023/03/07 01:03:19;;;;;;;17.17;12.63;;;9.20;98.20;;;;;;6185321;23;20080;-66
2023/03/07 01:05:45;;;;;;;16.47;11.93;;;9.20;98.20;;;;;;6185287;23;20024;-64
2023/03/07 01:08:12;;;;;;;17.87;11.77;;;9.20;98.30;;;;;;6185210;23;20008;-66
2023/03/07 01:10:38;;;;;;;17.27;10.67;;;9.20;98.40;;;;;;6184745;23;19997;-65
2023/03/07 01:13:04;;;;;;;18.00;11.07;;;9.20;98.50;;;;;;6185023;23;20012;-65
2023/03/07 01:15:30;;;;;;;18.07;11.57;;;9.20;98.50;;;;;;6185143;23;20009;-65
2023/03/07 01:17:56;;;;;;;16.77;11.20;;;9.20;98.50;;;;;;6185211;23;20001;-64
2023/03/07 01:20:22;;;;;;;42.80;26.83;;;9.20;98.50;;;;;;6185318;23;20083;-65
2023/03/07 01:22:48;;;;;;;14.53;10.70;;;9.20;98.50;;;;;;6184707;23;19997;-65
2023/03/07 01:25:14;;;;;;;14.47;10.80;;;9.10;98.50;;;;;;6185133;23;20012;-65
2023/03/07 01:27:39;;;;;;;22.00;12.17;;;9.10;98.50;;;;;;6185432;23;20009;-65
2023/03/07 01:30:07;;;;;;;18.70;11.33;;;9.10;98.60;;;;;;6185005;23;19997;-65
2023/03/07 01:32:33;;;;;;;16.53;11.40;;;9.10;98.60;;;;;;6184765;23;20005;-65
2023/03/07 01:34:59;;;;;;;13.90;10.17;;;9.10;98.60;;;;;;6184915;23;20135;-65
2023/03/07 01:37:25;;;;;;;16.47;11.03;;;9.10;98.70;;;;;;6185212;23;20080;-65
2023/03/07 01:39:52;;;;;;;14.43;9.80;;;9.10;98.70;;;;;;6185148;23;20008;-70
2023/03/07 01:42:19;;;;;;;14.67;10.23;;;9.10;98.70;;;;;;6185238;23;20012;-65
2023/03/07 01:45:04;;;;;;;13.90;9.87;;;9.10;98.70;;;;;;6184712;23;20001;-65
2023/03/07 01:47:30;;;;;;;15.87;10.50;;;9.10;98.70;;;;;;6184901;23;20031;-65
2023/03/07 01:50:00;;;;;;;18.93;10.60;;;9.10;98.70;;;;;;6185071;23;20002;-65
2023/03/07 01:52:32;;;;;;;20.33;11.20;;;9.10;98.60;;;;;;6184926;23;20072;-66
2023/03/07 01:55:08;;;;;;;15.53;10.93;;;9.10;98.50;;;;;;6185077;23;20421;-66
2023/03/07 01:57:38;;;;;;;17.90;10.97;;;9.10;98.50;;;;;;6184074;23;20076;-65
2023/03/07 02:00:10;;;;;;;17.87;11.67;;;9.10;98.50;;;;;;6181503;23;20334;-64
2023/03/07 02:02:37;;;;;;;15.20;10.90;;;9.10;98.50;;;;;;6155105;23;20009;-65
2023/03/07 02:05:14;;;;;;;16.93;11.37;;;9.10;98.60;;;;;;6183085;23;20224;-64
2023/03/07 02:07:45;;;;;;;16.07;9.80;;;9.10;98.70;;;;;;6184926;23;20005;-65
2023/03/07 02:10:13;;;;;;;20.27;11.47;;;9.10;98.70;;;;;;6184636;23;20028;-65
2023/03/07 02:12:40;;;;;;;13.70;10.43;;;9.10;98.80;;;;;;6184289;23;20436;-65
2023/03/07 02:15:11;;;;;;;14.57;9.97;;;9.00;98.90;;;;;;6185233;23;20361;-66
2023/03/07 02:17:38;;;;;;;20.73;11.13;;;9.10;98.90;;;;;;6184627;23;20001;-66
2023/03/07 02:20:19;;;;;;;22.87;10.93;;;9.10;99.00;;;;;;6184368;23;20005;-66
2023/03/07 02:22:48;;;;;;;15.97;9.97;;;9.10;98.90;;;;;;6185047;23;20008;-65
2023/03/07 02:25:35;;;;;;;17.00;10.53;;;9.00;98.90;;;;;;6184886;23;20002;-65
2023/03/07 02:28:03;;;;;;;16.63;10.93;;;9.00;98.90;;;;;;6184387;23;20005;-65
2023/03/07 02:30:29;;;;;;;15.57;11.03;;;9.00;98.90;;;;;;6184924;23;20004;-66
2023/03/07 02:32:55;;;;;;;14.97;10.43;;;9.00;99.00;;;;;;6184599;23;20447;-65
2023/03/07 02:35:23;;;;;;;13.33;9.37;;;9.00;99.00;;;;;;6186063;23;20013;-65
2023/03/07 02:37:53;;;;;;;13.23;8.37;;;9.00;99.00;;;;;;6186427;23;19998;-64
2023/03/07 02:40:23;;;;;;;12.53;8.43;;;9.00;99.10;;;;;;6186607;23;20028;-66
2023/03/07 02:42:51;;;;;;;13.23;8.07;;;9.00;99.10;;;;;;6186309;23;20024;-65
2023/03/07 02:45:18;;;;;;;10.00;6.80;;;9.00;99.10;;;;;;6186079;23;20027;-65
2023/03/07 02:47:44;;;;;;;12.57;8.10;;;9.00;99.10;;;;;;6186543;23;20043;-65
2023/03/07 02:50:11;;;;;;;11.67;7.57;;;9.00;99.20;;;;;;6187049;23;20306;-65
2023/03/07 02:52:38;;;;;;;13.83;8.13;;;9.00;99.30;;;;;;6186491;23;20001;-66
2023/03/07 02:55:04;;;;;;;12.13;7.37;;;9.00;99.40;;;;;;6186218;23;20079;-65
2023/03/07 02:57:30;;;;;;;10.97;7.87;;;9.00;99.30;;;;;;6185919;23;19997;-66
2023/03/07 02:59:56;;;;;;;11.73;7.87;;;9.00;99.40;;;;;;6186334;23;20012;-65
2023/03/07 03:02:22;;;;;;;12.10;7.50;;;9.00;99.40;;;;;;6186737;23;20048;-65
2023/03/07 03:04:48;;;;;;;11.00;7.53;;;9.00;99.40;;;;;;6186113;23;20036;-66
2023/03/07 03:07:13;;;;;;;13.20;7.60;;;9.00;99.40;;;;;;6185596;23;20071;-65
2023/03/07 03:09:39;;;;;;;10.50;7.17;;;9.00;99.30;;;;;;6186375;23;20009;-65
2023/03/07 03:12:05;;;;;;;11.77;7.77;;;9.00;99.30;;;;;;6186145;23;20056;-64
2023/03/07 03:14:31;;;;;;;11.60;7.50;;;9.00;99.30;;;;;;6186300;23;20045;-65
2023/03/07 03:16:57;;;;;;;13.53;7.77;;;9.00;99.20;;;;;;6186119;23;19997;-65
2023/03/07 03:19:23;;;;;;;10.30;7.63;;;9.00;99.20;;;;;;6186170;23;20004;-66
2023/03/07 03:21:49;;;;;;;11.43;6.63;;;8.90;99.10;;;;;;6186117;23;20012;-65
2023/03/07 03:24:15;;;;;;;10.23;7.40;;;8.90;99.20;;;;;;6186115;23;20001;-65
2023/03/07 03:26:40;;;;;;;14.93;7.97;;;8.90;99.10;;;;;;6186086;23;20008;-66
2023/03/07 03:29:06;;;;;;;13.80;7.97;;;8.90;99.00;;;;;;6186125;23;20029;-65
2023/03/07 03:31:33;;;;;;;10.80;7.43;;;8.90;99.10;;;;;;6186129;23;20028;-65
2023/03/07 03:33:59;;;;;;;12.60;6.83;;;8.80;99.00;;;;;;6185674;23;20063;-66
2023/03/07 03:36:26;;;;;;;12.47;7.00;;;8.90;99.00;;;;;;6185850;23;20004;-65
2023/03/07 03:38:53;;;;;;;9.13;7.00;;;8.90;98.90;;;;;;6186161;23;20005;-65
2023/03/07 03:41:19;;;;;;;8.57;6.87;;;8.80;98.90;;;;;;6185918;23;20047;-65
2023/03/07 03:43:44;;;;;;;12.43;7.60;;;8.80;98.90;;;;;;6186022;23;20060;-65
2023/03/07 03:46:10;;;;;;;15.30;7.57;;;8.70;98.90;;;;;;6185537;23;20005;-65
2023/03/07 03:48:36;;;;;;;10.23;7.83;;;8.80;99.00;;;;;;6185778;23;20017;-65
2023/03/07 03:51:04;;;;;;;12.00;7.10;;;8.80;99.10;;;;;;6186244;23;20013;-65
2023/03/07 03:53:32;;;;;;;13.40;7.43;;;8.70;99.00;;;;;;6186173;23;20567;-66
2023/03/07 03:56:07;;;;;;;12.20;6.60;;;8.80;99.00;;;;;;6185911;23;20428;-65
2023/03/07 03:58:34;;;;;;;11.17;6.50;;;8.80;99.00;;;;;;6186574;23;20364;-65
2023/03/07 04:01:04;;;;;;;11.47;6.30;;;8.70;98.90;;;;;;6185745;23;20432;-66
2023/03/07 04:03:32;;;;;;;8.33;5.70;;;8.70;98.80;;;;;;6185590;23;20328;-67
2023/03/07 04:06:06;;;;;;;7.87;5.50;;;8.70;98.80;;;;;;6185652;23;20416;-66
2023/03/07 04:08:33;;;;;;;10.30;5.80;;;8.70;98.70;;;;;;6185935;23;20005;-66
2023/03/07 04:10:59;;;;;;;10.27;5.50;;;8.70;98.70;;;;;;6185731;23;19997;-66
2023/03/07 04:13:26;;;;;;;9.60;5.77;;;8.60;98.70;;;;;;6185546;23;20005;-65
2023/03/07 04:15:53;;;;;;;10.40;5.63;;;8.60;98.60;;;;;;6185251;23;20459;-65
2023/03/07 04:18:20;;;;;;;10.60;5.60;;;8.60;98.60;;;;;;6185514;23;20320;-65
2023/03/07 04:20:48;;;;;;;8.23;5.20;;;8.60;98.50;;;;;;6185815;23;20059;-65
2023/03/07 04:23:14;;;;;;;11.23;5.63;;;8.50;98.50;;;;;;6185359;23;20056;-65
2023/03/07 04:25:45;;;;;;;9.67;5.77;;;8.50;98.50;;;;;;6185477;23;20005;-65
2023/03/07 04:28:11;;;;;;;10.20;5.60;;;8.50;98.60;;;;;;6185482;23;20515;-66
2023/03/07 04:30:37;;;;;;;7.77;5.47;;;8.50;98.50;;;;;;6185266;23;20005;-65
2023/03/07 04:33:03;;;;;;;9.40;5.53;;;8.50;98.40;;;;;;6185146;23;20008;-66
2023/03/07 04:35:28;;;;;;;8.97;5.73;;;8.50;98.40;;;;;;6185478;23;20013;-67
2023/03/07 04:37:54;;;;;;;13.63;5.77;;;8.50;98.50;;;;;;6185487;23;20001;-65
2023/03/07 04:40:20;;;;;;;11.43;5.93;;;8.50;98.50;;;;;;6185248;23;20032;-66
2023/03/07 04:42:45;;;;;;;8.33;6.27;;;8.50;98.50;;;;;;6185401;23;20001;-67
2023/03/07 04:45:11;;;;;;;11.93;6.07;;;8.50;98.50;;;;;;6185088;23;20009;-66
2023/03/07 04:47:37;;;;;;;9.10;5.90;;;8.50;98.40;;;;;;6184799;23;20074;-65
2023/03/07 04:50:03;;;;;;;7.67;5.60;;;8.50;98.50;;;;;;6185477;23;20017;-65
2023/03/07 04:52:29;;;;;;;10.57;5.60;;;8.40;98.40;;;;;;6185798;23;20001;-65
2023/03/07 04:54:54;;;;;;;11.40;5.77;;;8.40;98.40;;;;;;6184941;23;20067;-65
2023/03/07 04:57:20;;;;;;;9.37;6.07;;;8.40;98.40;;;;;;6185316;23;20005;-66
2023/03/07 04:59:46;;;;;;;10.23;6.17;;;8.40;98.40;;;;;;6158853;23;20012;-65
2023/03/07 05:02:12;;;;;;;10.10;5.83;;;8.40;98.40;;;;;;6185394;23;20072;-65
2023/03/07 05:04:38;;;;;;;8.57;5.60;;;8.40;98.30;;;;;;6185280;23;20083;-65
2023/03/07 05:07:04;;;;;;;10.43;5.03;;;8.40;98.20;;;;;;6185226;23;19997;-66
2023/03/07 05:09:30;;;;;;;8.87;6.03;;;8.40;98.20;;;;;;6185082;23;20001;-66
2023/03/07 05:11:56;;;;;;;11.03;5.97;;;8.40;98.10;;;;;;6185229;23;20001;-65
2023/03/07 05:14:22;;;;;;;11.73;6.10;;;8.40;98.20;;;;;;6184881;23;20021;-65
2023/03/07 05:16:47;;;;;;;10.93;5.73;;;8.30;98.10;;;;;;6184907;23;20028;-65
2023/03/07 05:19:13;;;;;;;11.43;6.17;;;8.30;98.10;;;;;;6184844;23;20135;-65
2023/03/07 05:21:39;;;;;;;13.20;6.17;;;8.30;98.10;;;;;;6158926;23;20001;-65
2023/03/07 05:24:06;;;;;;;11.13;5.93;;;8.30;98.10;;;;;;6185159;23;20001;-65
2023/03/07 05:26:32;;;;;;;11.30;6.60;;;8.30;98.20;;;;;;6184926;23;20324;-65
2023/03/07 05:28:58;;;;;;;11.97;6.23;;;8.30;98.20;;;;;;6184996;23;20005;-64
2023/03/07 05:31:24;;;;;;;10.00;6.10;;;8.30;98.10;;;;;;6184949;23;20028;-65
2023/03/07 05:33:49;;;;;;;10.17;6.07;;;8.30;98.20;;;;;;6185067;23;20016;-65
2023/03/07 05:36:16;;;;;;;10.70;5.57;;;8.30;98.20;;;;;;6185153;23;20443;-64
2023/03/07 05:38:42;;;;;;;8.87;6.00;;;8.30;98.20;;;;;;6185102;23;20459;-65
2023/03/07 05:41:08;;;;;;;9.00;6.33;;;8.30;98.20;;;;;;6185013;23;19997;-65
2023/03/07 05:43:33;;;;;;;8.47;5.17;;;8.30;98.20;;;;;;6184825;23;20017;-65
2023/03/07 05:45:59;;;;;;;11.97;5.83;;;8.20;98.20;;;;;;6184707;23;20001;-65
2023/03/07 05:48:25;;;;;;;11.20;5.77;;;8.20;98.20;;;;;;6184749;23;20067;-65
2023/03/07 05:50:51;;;;;;;13.10;6.00;;;8.30;98.40;;;;;;6184970;23;20048;-65
2023/03/07 05:53:16;;;;;;;10.80;6.40;;;8.20;98.30;;;;;;6184642;23;20012;-64
2023/03/07 05:55:43;;;;;;;11.07;6.07;;;8.20;98.30;;;;;;6185148;23;20005;-65
2023/03/07 05:58:09;;;;;;;9.73;6.20;;;8.20;98.20;;;;;;6184881;23;20001;-64
2023/03/07 06:00:34;;;;;;;10.17;5.50;;;8.20;98.20;;;;;;6184750;23;20209;-66
2023/03/07 06:03:04;;;;;;;10.47;6.17;;;8.20;98.20;;;;;;6185033;23;20054;-65
2023/03/07 06:05:29;;;;;;;9.57;5.87;;;8.20;98.20;;;;;;6184974;23;20072;-64
2023/03/07 06:07:55;;;;;;;9.07;5.70;;;8.20;98.20;;;;;;6185778;23;20031;-65
2023/03/07 06:10:21;;;;;;;8.70;5.67;;;8.20;98.30;;;;;;6186867;23;20008;-64
2023/03/07 06:12:51;;;;;;;11.93;5.87;;;8.20;98.20;;;;;;6187088;23;20005;-64
2023/03/07 06:15:18;;;;;;;10.37;5.73;;;8.20;98.20;;;;;;6186819;23;20016;-65
2023/03/07 06:17:43;;;;;;;9.60;5.70;;;8.20;98.20;;;;;;6186625;23;19997;-66
2023/03/07 06:20:10;;;;;;;12.60;6.10;;;8.20;98.30;;;;;;6186691;23;20372;-64
2023/03/07 06:22:37;;;;;;;11.60;5.80;;;8.20;98.30;;;;;;6186637;23;20081;-64
2023/03/07 06:25:04;;;;;;;11.47;5.60;;;8.20;98.30;;;;;;6186605;23;20009;-64
2023/03/07 06:27:34;;;;;;;11.40;6.37;;;8.20;98.40;;;;;;6186793;23;19997;-64
2023/03/07 06:30:01;;;;;;;11.20;6.60;;;8.20;98.40;;;;;;6186482;23;20032;-64
2023/03/07 06:32:26;;;;;;;12.37;6.93;;;8.30;98.40;;;;;;6186855;23;19997;-64
2023/03/07 06:34:52;;;;;;;10.97;6.83;;;8.20;98.50;;;;;;6186467;23;20020;-64
2023/03/07 06:37:18;;;;;;;9.33;7.37;;;8.20;98.40;;;;;;6186632;23;20012;-64
2023/03/07 06:39:44;;;;;;;17.03;14.40;;;8.20;98.50;;;;;;6186648;23;20076;-65
2023/03/07 06:42:09;;;;;;;15.10;7.37;;;8.30;98.50;;;;;;6186124;23;20001;-63
2023/03/07 06:44:35;;;;;;;9.97;7.00;;;8.30;98.50;;;;;;6186315;23;20056;-65
2023/03/07 06:47:01;;;;;;;13.37;10.03;;;8.30;98.50;;;;;;6187457;23;20066;-63
2023/03/07 06:49:27;;;;;;;21.30;14.27;;;8.30;98.50;;;;;;6186026;23;20019;-63
2023/03/07 06:51:52;;;;;;;21.40;14.33;;;8.30;98.50;;;;;;6186225;23;20001;-64
2023/03/07 06:54:18;;;;;;;11.97;10.47;;;8.30;98.50;;;;;;6186147;23;20025;-65
2023/03/07 06:56:44;;;;;;;12.37;11.03;;;8.30;98.50;;;;;;6185996;23;20016;-64
2023/03/07 06:59:10;;;;;;;15.13;10.23;;;8.30;98.40;;;;;;6186079;23;20325;-64
2023/03/07 07:01:36;;;;;;;15.43;8.87;;;8.30;98.40;;;;;;6186194;23;19997;-64
2023/03/07 07:04:03;;;;;;;13.97;7.33;;;8.40;98.50;;;;;;6186708;23;20075;-64
2023/03/07 07:06:28;;;;;;;12.17;8.03;;;8.30;98.40;;;;;;6185821;23;19997;-64
2023/03/07 07:08:58;;;;;;;15.80;7.70;;;8.40;98.40;;;;;;6185982;23;20012;-64
2023/03/07 07:11:25;;;;;;;12.63;7.80;;;8.40;98.50;;;;;;6186659;23;20372;-64
2023/03/07 07:13:51;;;;;;;13.17;7.53;;;8.40;98.50;;;;;;6186087;23;20080;-65
2023/03/07 07:16:17;;;;;;;10.27;7.50;;;8.40;98.50;;;;;;6186273;23;20009;-65
2023/03/07 07:18:44;;;;;;;13.40;7.33;;;8.50;98.50;;;;;;6186206;23;20157;-64
2023/03/07 07:21:09;;;;;;;13.40;7.80;;;8.50;98.50;;;;;;6184396;23;20029;-64
2023/03/07 07:23:36;;;;;;;11.80;7.63;;;8.60;98.50;;;;;;6186182;23;20008;-64
2023/03/07 07:26:01;;;;;;;15.03;8.00;;;8.60;98.50;;;;;;6185987;23;20379;-64
2023/03/07 07:28:27;;;;;;;11.20;7.83;;;8.60;98.50;;;;;;6186322;23;20080;-64
2023/03/07 07:30:53;;;;;;;15.93;7.57;;;8.70;98.60;;;;;;6186505;23;20007;-64
2023/03/07 07:33:19;;;;;;;12.97;7.43;;;8.70;98.60;;;;;;6186098;23;20052;-64
2023/03/07 07:35:45;;;;;;;12.50;7.50;;;8.70;98.60;;;;;;6186344;23;20009;-64
2023/03/07 07:38:12;;;;;;;15.10;8.23;;;8.80;98.60;;;;;;6186133;23;20285;-64
2023/03/07 07:40:39;;;;;;;14.10;8.20;;;8.90;98.70;;;;;;6185137;23;20005;-64
2023/03/07 07:43:04;;;;;;;10.67;7.93;;;8.90;98.60;;;;;;6185533;23;20072;-64
2023/03/07 07:45:30;;;;;;;16.00;8.53;;;9.00;98.60;;;;;;6185766;23;20402;-64
2023/03/07 07:47:56;;;;;;;16.20;8.57;;;9.00;98.60;;;;;;6185325;23;20020;-63
2023/03/07 07:50:23;;;;;;;14.53;8.70;;;9.00;98.50;;;;;;6186046;23;20011;-64
2023/03/07 07:52:51;;;;;;;18.83;8.60;;;9.10;98.50;;;;;;6186189;23;20009;-64
2023/03/07 07:55:17;;;;;;;14.87;9.67;;;9.10;98.50;;;;;;6186517;23;20072;-64
2023/03/07 07:57:43;;;;;;;18.93;9.80;;;9.20;98.50;;;;;;6186060;23;20005;-63
2023/03/07 08:00:11;;;;;;;16.20;9.50;;;9.20;98.60;;;;;;6185817;23;20056;-63
2023/03/07 08:02:37;;;;;;;18.93;10.63;;;9.20;98.60;;;;;;6186058;23;20428;-69
2023/03/07 08:05:06;;;;;;;12.80;9.87;;;9.30;98.60;;;;;;6185794;23;20009;-70
2023/03/07 08:07:32;;;;;;;18.80;10.37;;;9.30;98.50;;;;;;6185770;23;20005;-63
2023/03/07 08:09:58;;;;;;;15.23;9.67;;;9.40;98.50;;;;;;6185819;23;20031;-64
2023/03/07 08:12:23;;;;;;;17.53;9.47;;;9.40;98.40;;;;;;6186026;23;20001;-64
2023/03/07 08:14:49;;;;;;;17.80;9.73;;;9.50;98.30;;;;;;6185469;23;20037;-64
2023/03/07 08:17:15;;;;;;;18.10;10.50;;;9.50;98.50;;;;;;6185366;23;19997;-64
2023/03/07 08:19:41;;;;;;;16.40;9.83;;;9.60;98.40;;;;;;6185899;23;20005;-64
2023/03/07 08:22:06;;;;;;;17.27;9.27;;;9.60;98.30;;;;;;6185817;23;20056;-64
2023/03/07 08:24:34;;;;;;;15.20;9.27;;;9.70;98.20;;;;;;6185820;23;20035;-64
2023/03/07 08:27:00;;;;;;;15.33;8.57;;;9.70;98.10;;;;;;6186028;23;20005;-67
2023/03/07 08:29:26;;;;;;;16.03;8.53;;;9.80;98.00;;;;;;6185479;23;20387;-64
2023/03/07 08:31:53;;;;;;;14.63;9.57;;;9.80;98.00;;;;;;6185404;23;19997;-64
2023/03/07 08:34:19;;;;;;;21.77;10.30;;;9.80;97.80;;;;;;6185602;23;20009;-64
2023/03/07 08:36:45;;;;;;;17.13;9.03;;;9.90;98.00;;;;;;6181730;23;20447;-64
2023/03/07 08:39:12;;;;;;;13.93;7.53;;;9.90;97.70;;;;;;6182525;23;20012;-64
2023/03/07 08:41:37;;;;;;;15.53;8.73;;;10.00;97.10;;;;;;6185460;23;20002;-64
2023/03/07 08:44:03;;;;;;;13.75;8.20;;;10.00;96.60;;;;;;6185514;23;20005;-64
2023/03/07 08:46:29;;;;;;;17.07;8.27;;;10.00;96.50;;;;;;6185502;23;20001;-64
2023/03/07 08:48:55;;;;;;;19.33;8.75;;;10.10;96.40;;;;;;6185434;23;20040;-66
2023/03/07 08:51:21;;;;;;;17.57;8.77;;;10.10;96.30;;;;;;6185116;23;20027;-65
2023/03/07 08:53:47;;;;;;;15.52;8.35;;;10.10;96.10;;;;;;6185284;23;20009;-64
2023/03/07 08:56:16;;;;;;;16.97;8.07;;;10.10;96.00;;;;;;6185355;23;20005;-65
2023/03/07 08:58:42;;;;;;;20.90;8.43;;;10.20;95.90;;;;;;6185660;23;20072;-64
2023/03/07 09:01:09;;;;;;;15.07;8.27;;;10.20;95.70;;;;;;6185375;23;20004;-64
2023/03/07 09:03:35;;;;;;;17.23;9.30;;;10.20;95.80;;;;;;6185237;23;20306;-64
2023/03/07 09:06:02;;;;;;;22.47;11.23;;;10.20;95.80;;;;;;6185364;23;20020;-64
2023/03/07 09:08:28;;;;;;;23.27;12.73;;;10.30;95.60;;;;;;6185577;23;20327;-64
2023/03/07 09:10:54;;;;;;;22.97;13.27;;;10.30;95.10;;;;;;6185158;23;19997;-64
2023/03/07 09:13:19;;;;;;;27.00;13.10;;;10.30;94.80;;;;;;6185279;23;20009;-64
2023/03/07 09:15:45;;;;;;;21.75;12.32;;;10.30;94.80;;;;;;6185447;23;20055;-65
2023/03/07 09:18:11;;;;;;;25.63;12.60;;;10.30;94.90;;;;;;6185390;23;20001;-65
2023/03/07 09:20:38;;;;;;;20.20;11.95;;;10.30;95.10;;;;;;6185347;23;20063;-64
2023/03/07 09:23:05;;;;;;;24.10;12.65;;;10.30;95.20;;;;;;6185414;23;19997;-64
2023/03/07 09:25:30;;;;;;;24.58;12.85;;;10.40;94.90;;;;;;6185188;23;20063;-65
2023/03/07 09:27:56;;;;;;;22.88;13.52;;;10.30;94.90;;;;;;6185287;23;20001;-64
2023/03/07 09:30:24;;;;;;;23.17;13.75;;;10.40;95.00;;;;;;6185348;23;20008;-65
2023/03/07 09:32:50;;;;;;;22.47;14.53;;;10.30;94.70;;;;;;6185241;23;20001;-64
2023/03/07 09:35:16;;;;;;;24.07;15.07;;;10.30;94.60;;;;;;6185302;23;20013;-64
2023/03/07 09:37:42;;;;;;;25.23;13.90;;;10.40;94.30;;;;;;6184779;23;20001;-65
2023/03/07 09:40:22;;;;;;;24.70;15.18;;;10.30;94.20;;;;;;6184828;23;20001;-65
2023/03/07 09:43:05;;;;;;;26.27;13.87;;;10.30;94.30;;;;;;6184301;23;20001;-65
2023/03/07 09:46:02;;;;;;;29.95;15.25;;;10.30;94.40;;;;;;6184659;23;20001;-65
2023/03/07 09:49:16;;;;;;;28.23;15.63;;;10.30;94.50;;;;;;6184649;23;20084;-65
2023/03/07 09:51:42;;;;;;;28.70;16.33;;;10.30;94.70;;;;;;6176736;23;20348;-64
2023/03/07 09:54:21;;;;;;;28.60;16.30;;;10.30;94.40;;;;;;6184931;23;20015;-70
2023/03/07 09:56:48;;;;;;;27.20;16.77;;;10.30;94.30;;;;;;6184968;23;20420;-66
2023/03/07 09:59:38;;;;;;;28.20;16.00;;;10.30;94.30;;;;;;6184810;23;20088;-64
2023/03/07 10:02:30;;;;;;;30.27;16.88;;;10.30;94.30;;;;;;6184774;23;20001;-64
2023/03/07 10:05:22;;;;;;;23.95;15.30;;;10.30;94.30;;;;;;6185186;23;20068;-64
2023/03/07 10:07:48;;;;;;;27.25;15.68;;;10.30;94.40;;;;;;6184988;23;20064;-66
2023/03/07 10:10:22;;;;;;;33.35;16.30;;;10.30;94.40;;;;;;6185156;23;20001;-64
2023/03/07 10:13:33;;;;;;;29.45;16.90;;;10.30;94.50;;;;;;6184614;23;20008;-66
2023/03/07 10:16:17;;;;;;;34.83;17.27;;;10.30;94.60;;;;;;6184780;23;20047;-64
2023/03/07 10:18:51;;;;;;;26.87;15.03;;;10.30;94.80;;;;;;6185128;23;20005;-64
2023/03/07 10:21:42;;;;;;;28.05;13.95;;;10.30;94.90;;;;;;6185368;23;20024;-65
2023/03/07 10:24:20;;;;;;;33.13;14.43;;;10.30;95.20;;;;;;6185081;23;20332;-64
2023/03/07 10:26:50;;;;;;;27.53;14.30;;;10.30;95.40;;;;;;6185299;23;20067;-65
2023/03/07 10:29:18;;;;;;;29.07;15.43;;;10.30;95.50;;;;;;6184977;23;19997;-64
2023/03/07 10:31:50;;;;;;;31.63;16.23;;;10.20;95.50;;;;;;6185190;23;20036;-65
2023/03/07 10:34:22;;;;;;;24.08;15.13;;;10.20;95.60;;;;;;6185313;23;20017;-65
2023/03/07 10:36:51;;;;;;;29.70;16.05;;;10.30;95.50;;;;;;6185086;23;20004;-65
2023/03/07 10:39:54;;;;;;;30.38;14.82;;;10.30;95.40;;;;;;6185073;23;20072;-64
2023/03/07 10:42:33;;;;;;;22.88;14.93;;;10.30;95.50;;;;;;6185392;23;20005;-64
2023/03/07 10:45:00;;;;;;;28.57;15.80;;;10.30;95.60;;;;;;6185044;23;20001;-64
2023/03/07 10:47:27;;;;;;;22.50;14.77;;;10.30;95.70;;;;;;6184666;23;20001;-64
2023/03/07 10:50:24;;;;;;;26.33;15.63;;;10.30;95.60;;;;;;6184715;23;20051;-64
2023/03/07 10:53:02;;;;;;;28.75;15.57;;;10.30;95.60;;;;;;6169360;23;20006;-64
2023/03/07 10:55:42;;;;;;;30.00;17.30;;;10.30;95.60;;;;;;6186651;23;20444;-64
2023/03/07 10:58:11;;;;;;;34.97;18.57;;;10.30;95.60;;;;;;6186646;23;20024;-64
2023/03/07 11:00:36;;;;;;;36.57;19.23;;;10.30;95.70;;;;;;6186437;23;20012;-64
2023/03/07 11:03:02;;;;;;;44.00;20.40;;;10.30;95.90;;;;;;6186666;23;19997;-64
2023/03/07 11:05:34;;;;;;;32.80;19.80;;;10.30;96.00;;;;;;6186758;23;20058;-64
2023/03/07 11:08:30;;;;;;;30.33;21.48;;;10.30;96.00;;;;;;6186597;23;20027;-64
2023/03/07 11:10:57;;;;;;;33.67;22.03;;;10.40;96.30;;;;;;6186422;23;20024;-64
2023/03/07 11:13:23;;;;;;;35.28;23.27;;;10.40;96.40;;;;;;6186558;23;20068;-64
2023/03/07 11:15:50;;;;;;;42.03;25.30;;;10.40;96.40;;;;;;6186329;23;20032;-65
2023/03/07 11:18:30;;;;;;;36.38;22.88;;;10.40;96.50;;;;;;6186302;23;20000;-65
2023/03/07 11:20:57;;;;;;;33.38;24.58;;;10.50;96.50;;;;;;6186580;23;20012;-64
2023/03/07 11:23:30;;;;;;;44.78;26.08;;;10.50;96.40;;;;;;6186416;23;20475;-64
2023/03/07 11:26:20;;;;;;;50.40;32.97;;;10.50;96.40;;;;;;6186274;23;20497;-64
2023/03/07 11:28:46;;;;;;;48.20;34.47;;;10.60;96.30;;;;;;6186373;23;20008;-64
2023/03/07 11:31:30;;;;;;;58.88;41.03;;;10.60;95.80;;;;;;6186497;23;20001;-64
2023/03/07 11:34:02;;;;;;;60.10;40.03;;;10.60;95.30;;;;;;6185910;23;20482;-64
2023/03/07 11:36:30;;;;;;;56.75;39.33;;;10.60;95.10;;;;;;6186862;23;20336;-65
2023/03/07 11:39:17;;;;;;;55.92;40.60;;;10.60;94.80;;;;;;6186317;23;20432;-65
2023/03/07 11:41:47;;;;;;;56.53;40.47;;;10.70;95.00;;;;;;6186369;23;20432;-65
2023/03/07 11:44:33;;;;;;;63.40;41.50;;;10.70;95.30;;;;;;6186092;23;20001;-65
2023/03/07 11:47:27;;;;;;;59.28;40.88;;;10.70;95.10;;;;;;6185888;23;19997;-66
2023/03/07 11:50:15;;;;;;;54.28;38.22;;;10.80;95.00;;;;;;6186147;23;20017;-66
2023/03/07 11:52:53;;;;;;;52.28;35.97;;;10.80;95.20;;;;;;6186284;23;20357;-65
2023/03/07 11:55:35;;;;;;;51.05;35.55;;;10.90;95.20;;;;;;6185616;23;20039;-65
2023/03/07 11:58:28;;;;;;;51.72;33.92;;;10.90;95.10;;;;;;6186004;23;20004;-65
2023/03/07 12:00:57;;;;;;;45.60;29.15;;;10.90;94.90;;;;;;6185604;23;20324;-64
2023/03/07 12:03:56;;;;;;;46.45;29.23;;;10.90;94.80;;;;;;6185727;23;20001;-63
2023/03/07 12:07:03;;;;;;;45.92;29.13;;;10.90;94.60;;;;;;6186230;23;20020;-63
2023/03/07 12:09:51;;;;;;;40.03;26.13;;;10.90;94.60;;;;;;6185919;23;19997;-67
2023/03/07 12:12:38;;;;;;;33.25;23.52;;;11.00;94.60;;;;;;6185834;23;20028;-63
2023/03/07 12:15:27;;;;;;;40.20;22.85;;;11.00;94.50;;;;;;6185704;23;20432;-63
2023/03/07 12:18:03;;;;;;;31.20;18.75;;;11.00;94.40;;;;;;6147554;23;20373;-63
2023/03/07 12:20:42;;;;;;;27.15;17.58;;;11.00;94.20;;;;;;6186016;23;20070;-63
2023/03/07 12:23:37;;;;;;;24.55;15.93;;;11.00;94.00;;;;;;6185838;23;20331;-64
2023/03/07 12:26:18;;;;;;;21.95;15.75;;;11.00;93.70;;;;;;6185757;23;20379;-63
2023/03/07 12:28:58;;;;;;;28.50;15.35;;;11.00;93.60;;;;;;6185445;23;20025;-64
2023/03/07 12:31:37;;;;;;;24.38;14.90;;;11.00;93.70;;;;;;6185329;23;20005;-64
2023/03/07 12:34:14;;;;;;;26.73;15.23;;;11.00;93.60;;;;;;6185191;23;20440;-63
2023/03/07 12:36:51;;;;;;;22.67;14.02;;;11.00;93.30;;;;;;6185396;23;20702;-64
2023/03/07 12:39:17;;;;;;;27.88;13.90;;;11.00;93.20;;;;;;6185541;23;20032;-67
2023/03/07 12:42:08;;;;;;;23.92;13.40;;;11.00;93.20;;;;;;6185550;23;20424;-64
2023/03/07 12:44:54;;;;;;;23.00;13.68;;;11.00;93.20;;;;;;6185442;23;20001;-64
2023/03/07 12:47:35;;;;;;;21.45;12.23;;;11.00;93.20;;;;;;6185275;23;19997;-63
2023/03/07 12:50:37;;;;;;;30.33;12.77;;;11.00;93.10;;;;;;6185551;23;20020;-64
2023/03/07 12:53:36;;;;;;;18.35;11.13;;;11.10;92.90;;;;;;6173360;23;20009;-63
2023/03/07 12:56:17;;;;;;;22.63;11.48;;;11.10;92.60;;;;;;6185402;23;20375;-64